KHIB

Range Regional Airport

Hibbing, Minnesota, USA
KHIB 210523Z 2106/2206 VRB05KT P6SM SKC
Issued Valid From Valid To
Apr-21 @ 05:23 UTC
(4 hours ago)
Apr-21 @ 06:00 UTC
(4 hours ago)
Apr-22 @ 06:00 UTC
(in 20 hours)
Apr-21 @ 06:00 to Apr-22 @ 06:00
KHIB 210523Z 2106/2206 VRB05KT P6SM SKC
Wind Visibility Clouds
Variable at 5 knots Greater than 6 miles
  • Clear skies
KHIB 210523Z 2106/2206 VRB05KT P6SM SKC
Issued Apr-21 @ 05:23 UTC
(4 hours ago)
Valid From Apr-21 @ 06:00 UTC
(4 hours ago)
Valid To Apr-22 @ 06:00 UTC
(in 20 hours)
Apr-21 @ 06:00 - Apr-22 @ 06:00
Wind Visibility
Variable at 5 knots Greater than 6 miles
Clouds
  • Clear skies